Weather History for Mekoryuk, AK

Change the Weather History Date:

Saturday, May 17, 2014

  Actual Average Record
Temperature  
Mean Temperature 36 °F -  
Max Temperature 41 °F 37 °F 48 °F (1983)
Min Temperature 32 °F 29 °F 10 °F (2013)
Degree Days  
Heating Degree Days 28    
Moisture  
Dew Point 31 °F    
Average Humidity 82    
Maximum Humidity 100    
Minimum Humidity 61    
Precipitation  
Precipitation 0.00 in - - ()
Sea Level Pressure  
Sea Level Pressure 30.37 in    
Wind  
Wind Speed 12 mph (WNW)    
Max Wind Speed 20 mph    
Max Gust Speed 21 mph    
Visibility 5 miles    
Events      
Averages and records for this station are not official NWS values.
T = Trace of Precipitation, MM = Missing Value Source: NWS Daily Summary

Daily Weather History Graph

Daily Weather History Graph

Search for Another Location

Airport:

Trip Planner

Search our weather history database for the weather conditions in past years. The results will help you decide how hot, cold, wet, or windy it might be!

Date:

Astronomy

May. 17, 2014 Rise Set
Actual Time 6:19 AM AKDT 11:45 PM AKDT
Civil Twilight 5:11 AM AKDT 12:54 AM AKDT
Nautical Twilight 3:33 AM AKDT 2:29 AM AKDT
Astronomical Twilight Sun does not rise Sun does not rise
Moon 1:58 AM AKDT (5/17) 9:21 AM AKDT (5/17)
Length of Visible Light 19h 42m
Length of Day
17h 26m
Waning Gibbous, 88% of the Moon is Illuminated
May 17
Waning Gibbous
May 21
Last Quarter
May 28
New
Jun 5
First Quarter
Jun 12
Full

Hourly Weather History & Observations

Time (AKDT) Temp. Windchill Dew Point Humidity Pressure Visibility Wind Dir Wind Speed Gust Speed Precip Events Conditions
12:16 AM 33.8 °F 25.3 °F 26.6 °F 75% 30.39 in 0.8 mi West 11.5 mph - N/A   Overcast
12:36 AM 33.8 °F 25.3 °F 28.4 °F 81% 30.39 in 1.0 mi West 11.5 mph - N/A   Overcast
12:56 AM 33.8 °F 26.4 °F 26.6 °F 75% 30.39 in 1.0 mi West 9.2 mph - N/A   Overcast
1:16 AM 33.8 °F 26.4 °F 26.6 °F 75% 30.39 in 4.0 mi West 9.2 mph - N/A   Overcast
1:36 AM 33.8 °F 25.8 °F 28.4 °F 81% 30.38 in 0.8 mi West 10.4 mph - N/A   Overcast
1:56 AM 33.8 °F 27.0 °F 26.6 °F 75% 30.38 in 1.2 mi West 8.1 mph - N/A   Overcast
2:16 AM 33.8 °F 27.0 °F 26.6 °F 75% 30.38 in 1.5 mi West 8.1 mph - N/A   Overcast
2:36 AM 33.8 °F 25.8 °F 26.6 °F 75% 30.38 in 1.0 mi West 10.4 mph - N/A   Overcast
2:56 AM 32.0 °F 24.8 °F 26.6 °F 80% 30.38 in 0.5 mi West 8.1 mph - N/A   Overcast
3:16 AM 32.0 °F 24.2 °F 26.6 °F 80% 30.37 in 0.8 mi West 9.2 mph - N/A   Overcast
3:36 AM 33.8 °F 25.3 °F 26.6 °F 75% 30.37 in 9.0 mi West 11.5 mph - N/A   Overcast
3:56 AM 33.8 °F 25.8 °F 26.6 °F 75% 30.37 in 2.0 mi West 10.4 mph - N/A   Overcast
4:16 AM 33.8 °F 25.8 °F 26.6 °F 75% 30.36 in 2.5 mi West 10.4 mph - N/A   Overcast
4:36 AM 33.8 °F 26.4 °F 28.4 °F 81% 30.36 in 2.0 mi West 9.2 mph - N/A   Overcast
4:56 AM 33.8 °F 26.4 °F 28.4 °F 81% 30.36 in 3.0 mi West 9.2 mph - N/A   Overcast
5:16 AM 33.8 °F 25.8 °F 28.4 °F 81% 30.36 in 2.0 mi West 10.4 mph - N/A   Overcast
5:36 AM 33.8 °F 27.0 °F 28.4 °F 81% 30.36 in 3.0 mi West 8.1 mph - N/A   Overcast
5:56 AM 35.6 °F 29.2 °F 28.4 °F 75% 30.36 in 1.0 mi West 8.1 mph - N/A   Overcast
6:16 AM 35.6 °F 28.0 °F 28.4 °F 75% 30.36 in 0.8 mi West 10.4 mph - N/A   Overcast
6:36 AM 35.6 °F 27.5 °F 28.4 °F 75% 30.36 in 0.5 mi West 11.5 mph - N/A   Overcast
6:56 AM 35.6 °F 27.5 °F 30.2 °F 81% 30.36 in 1.8 mi West 11.5 mph - N/A   Overcast
7:16 AM 35.6 °F 27.5 °F 30.2 °F 81% 30.36 in 5.0 mi West 11.5 mph - N/A   Overcast
7:36 AM 37.4 °F 27.8 °F 30.2 °F 75% 30.35 in 5.0 mi West 17.3 mph 20.7 mph N/A   Overcast
7:56 AM 35.6 °F 25.9 °F 30.2 °F 81% 30.35 in 1.5 mi West 16.1 mph - N/A   Overcast
8:16 AM 35.6 °F 24.8 °F 30.2 °F 81% 30.36 in 2.5 mi WNW 19.6 mph - N/A   Overcast
8:36 AM 35.6 °F 25.9 °F 30.2 °F 81% 30.36 in 3.0 mi WNW 16.1 mph - N/A   Overcast
8:56 AM 35.6 °F 25.9 °F 30.2 °F 81% 30.36 in 1.5 mi WNW 16.1 mph - N/A   Overcast
9:16 AM 37.4 °F 28.5 °F 30.2 °F 75% 30.36 in 3.0 mi WNW 15.0 mph - N/A   Overcast
9:36 AM 37.4 °F 28.2 °F 30.2 °F 75% 30.37 in 1.0 mi WNW 16.1 mph - N/A   Overcast
9:56 AM 37.4 °F 28.2 °F 30.2 °F 75% 30.37 in 5.0 mi WNW 16.1 mph 19.6 mph N/A   Overcast
10:16 AM 37.4 °F 28.2 °F 30.2 °F 75% 30.37 in 0.5 mi WNW 16.1 mph - N/A   Overcast
10:36 AM 37.4 °F 28.2 °F 32.0 °F 81% 30.37 in 3.0 mi WNW 16.1 mph - N/A   Overcast
10:56 AM 37.4 °F 29.8 °F 32.0 °F 81% 30.37 in 10.0 mi WNW 11.5 mph - N/A   Overcast
11:16 AM 39.2 °F 30.2 °F 32.0 °F 75% 30.37 in 10.0 mi WNW 17.3 mph 20.7 mph N/A   Overcast
11:36 AM 37.4 °F 28.5 °F 32.0 °F 81% 30.37 in 10.0 mi WNW 15.0 mph - N/A   Overcast
11:56 AM 39.2 °F 31.6 °F 32.0 °F 75% 30.37 in 10.0 mi West 12.7 mph - N/A   Overcast
12:16 PM 39.2 °F 30.5 °F 33.8 °F 81% 30.37 in 10.0 mi WNW 16.1 mph - N/A   Overcast
12:36 PM 39.2 °F 30.5 °F 32.0 °F 75% 30.37 in 10.0 mi WNW 16.1 mph - N/A   Overcast
12:56 PM 41.0 °F 32.5 °F 33.8 °F 76% 30.36 in 10.0 mi WNW 17.3 mph - N/A   Overcast
6:16 PM 39.2 °F 32.0 °F 26.6 °F 61% 30.36 in 10.0 mi West 11.5 mph - N/A   Unknown
6:36 PM 39.2 °F 30.8 °F 35.6 °F 87% 30.36 in 10.0 mi WNW 15.0 mph - N/A   Overcast
6:56 PM 39.2 °F 31.2 °F 35.6 °F 87% 30.37 in 10.0 mi WNW 13.8 mph - N/A   Overcast
7:16 PM 39.2 °F 31.2 °F 35.6 °F 87% 30.37 in 10.0 mi WNW 13.8 mph - N/A   Overcast
7:36 PM 37.4 °F 28.9 °F 35.6 °F 93% 30.37 in 10.0 mi WNW 13.8 mph - N/A   Overcast
7:56 PM 37.4 °F 28.9 °F 35.6 °F 93% 30.37 in 10.0 mi WNW 13.8 mph - N/A   Overcast
8:16 PM 37.4 °F 29.3 °F 35.6 °F 93% 30.37 in 10.0 mi WNW 12.7 mph - N/A   Overcast
8:36 PM 37.4 °F 29.3 °F 35.6 °F 93% 30.37 in 10.0 mi WNW 12.7 mph - N/A   Overcast
8:56 PM 37.4 °F 28.5 °F 35.6 °F 93% 30.36 in 10.0 mi WNW 15.0 mph - N/A   Overcast
9:16 PM 37.4 °F 29.3 °F 35.6 °F 93% 30.36 in 10.0 mi WNW 12.7 mph - N/A   Overcast
9:36 PM 37.4 °F 29.3 °F 35.6 °F 93% 30.36 in 10.0 mi WNW 12.7 mph - N/A   Overcast
9:56 PM 37.4 °F 29.8 °F 33.8 °F 87% 30.36 in 5.0 mi WNW 11.5 mph - N/A   Overcast
10:16 PM 37.4 °F 29.8 °F 35.6 °F 93% 30.36 in 2.5 mi WNW 11.5 mph - N/A   Overcast
10:36 PM 35.6 °F 26.2 °F 35.6 °F 100% 30.36 in 3.0 mi WNW 15.0 mph - N/A   Overcast
10:56 PM 35.6 °F 27.1 °F 33.8 °F 93% 30.36 in 3.0 mi NW 12.7 mph - N/A   Overcast
11:16 PM 35.6 °F 26.2 °F 33.8 °F 93% 30.37 in 5.0 mi NW 15.0 mph - N/A   Overcast
11:36 PM 35.6 °F 27.5 °F 33.8 °F 93% 30.37 in 6.0 mi NW 11.5 mph - N/A   Overcast
11:56 PM 35.6 °F 27.1 °F 33.8 °F 93% 30.37 in 3.0 mi NW 12.7 mph - N/A   Overcast